Minot International Airport
KMOT : now visible

Airfield :











YOU CAN JOIN US ON...

 
LOGIN :

Register | Disclaimer

   EN    FR    IT 

 









Legend :    VFR   Marginal VFR   IFR   Intensive IFR   Very Intensive IFR
Visi :
Ceiling :
>= 8 km
>= 3000ft
5 to 8 km
1000 to 3000 ft
1500m to 5 km
500 to 1000 ft
800 to 1500m
200 to 500 ft
< 800m
< 200 ft
Symbols :   Thunderstorms  Fog  Heavy snow  Heavy precipitations  Wind > 20 kt






- Airport Elevation : 1716 ft
- IATA code : MOT


KMOT - Minot International

CURRENT METAR :
  • 141954Z 11005KT 9SM FEW070 OVC095 M18/M21 A3001 RMK AO2 SLP214 T11831211

EXPIRED METARs :
  • 141854Z 10004KT 10SM OVC095 M19/M22 A3003 RMK AO2 SLP221 T11891222
  • 141808Z 13003KT 8SM FEW003 BKN080 OVC100 M19/M22 A3004 RMK AO2 T11941222
  • 141801Z 10004KT 4SM HZ FEW003 BKN008 OVC100 M19/M22 A3004 RMK AO2 T11941222
  • 141754Z 10003KT 4SM HZ FEW003 SCT008 OVC100 M19/M22 A3005 RMK AO2 SLP227 T11941222 11194 21217 58003

TAF KMOT
Valid from the 14 at 19:00 until the 15 at 18:00 UTC


141848Z 1419/1518 00000KT P6SM SCT007 OVC100
FM142100 00000KT P6SM OVC050
FM150300 VRB04KT P6SM -SHSN OVC023
FM150600 VRB04KT 3SM -SN OVC019
FM150900 19005KT P6SM -SHSN OVC024
FM151000 20005KT P6SM OVC014
FM151300 23006KT P6SM OVC040



MET'MAP, your aeronautical weather chart ! - Copyright ORBIFLY December 2007 - Disclaimer

ORBIFLY MET'MAP TEAM :

Programming & Development : Alexandra Zaïnal
Concept & original design : Baudouin d'Aumeries
Assistance for programming : Marc-Olivier Méhu
Technical & hardware support : Manuel Goepfert

Contact : metmap@orbifly.com




SOURCES & CREDITS :

   NOAA       Earth
Advisory